Time;durP1;ratioP1;P1;durP2;ratioP2;P2;SDS_P1;SDS_P2;PMS_P1;PMS_P2;Temp;Humidity;BMP_temperature;BMP_pressure;BME280_temperature;BME280_humidity;BME280_pressure;Samples;Min_cycle;Max_cycle;Signal;HPM_P1;HPM_P2
2023/12/18 00:01:22;;;;;;;;;;;;;;;6.10;88.08;102472.06;4196385;28;20470;-68
2023/12/18 00:03:24;;;;;;;;;;;;;;;6.10;88.10;102469.38;4195591;28;20027;-69
2023/12/18 00:05:26;;;;;;;;;;;;;;;6.10;88.05;102466.69;4195046;28;20011;-69
2023/12/18 00:07:28;;;;;;;;;;;;;;;6.10;88.06;102455.13;4196400;28;20711;-68
2023/12/18 00:09:30;;;;;;;;;;;;;;;6.11;87.77;102459.50;4194102;28;20011;-68
2023/12/18 00:11:31;;;;;;;;;;;;;;;6.11;88.12;102456.81;4195275;28;20015;-69
2023/12/18 00:13:34;;;;;;;;;;;;;;;6.08;87.92;102444.50;4196049;28;19931;-68
2023/12/18 00:15:36;;;;;;;;;;;;;;;6.12;88.03;102455.84;4195137;28;20015;-68
2023/12/18 00:17:38;;;;;;;;;;;;;;;6.12;88.32;102454.03;4196088;28;20031;-69
2023/12/18 00:19:40;;;;;;;;;;;;;;;6.12;88.23;102442.44;4193477;28;20023;-68
2023/12/18 00:21:42;;;;;;;;;;;;;;;6.12;88.02;102443.28;4193999;28;20331;-69
2023/12/18 00:23:43;;;;;;;;;;;;;;;6.12;87.98;102435.25;4196396;28;20023;-69
2023/12/18 00:25:45;;;;;;;;;;;;;;;6.13;88.16;102428.94;4195817;28;20007;-69
2023/12/18 00:27:46;;;;;;;;;;;;;;;6.12;88.18;102432.56;4196289;28;20023;-69
2023/12/18 00:29:49;;;;;;;;;;;;;;;6.12;88.17;102424.50;4195933;28;19993;-68
2023/12/18 00:31:51;;;;;;;;;;;;;;;6.11;88.20;102428.19;4195384;28;20015;-69
2023/12/18 00:33:53;;;;;;;;;;;;;;;6.12;88.35;102429.03;4196246;28;20103;-69
2023/12/18 00:35:55;;;;;;;;;;;;;;;6.10;88.12;102434.50;4195551;28;20043;-69
2023/12/18 00:38:00;;;;;;;;;;;;;;;6.09;88.25;102427.41;4195245;28;20007;-69
2023/12/18 00:40:02;;;;;;;;;;;;;;;6.10;88.37;102414.88;4195045;28;20015;-69
2023/12/18 00:42:03;;;;;;;;;;;;;;;6.10;88.49;102420.25;4195259;28;20019;-68
2023/12/18 00:44:05;;;;;;;;;;;;;;;6.08;88.67;102422.16;4196100;28;20035;-69
2023/12/18 00:46:09;;;;;;;;;;;;;;;6.08;88.51;102419.47;4194718;28;20501;-69
2023/12/18 00:48:10;;;;;;;;;;;;;;;6.08;88.51;102423.03;4195355;28;20470;-68
2023/12/18 00:50:12;;;;;;;;;;;;;;;6.08;88.49;102414.09;4192914;28;19932;-69
2023/12/18 00:52:13;;;;;;;;;;;;;;;6.07;88.92;102409.72;4193189;28;20020;-68
2023/12/18 00:54:15;;;;;;;;;;;;;;;6.06;88.61;102408.84;4194682;28;20007;-69
2023/12/18 00:56:16;;;;;;;;;;;;;;;6.06;88.87;102402.63;4194982;28;20007;-68
2023/12/18 00:58:18;;;;;;;;;;;;;;;6.05;88.83;102408.94;4195535;28;20011;-68
2023/12/18 01:00:20;;;;;;;;;;;;;;;6.03;88.98;102406.38;4194780;28;20028;-69
2023/12/18 01:02:23;;;;;;;;;;;;;;;6.02;89.14;102410.03;4193429;28;20007;-68
2023/12/18 01:04:25;;;;;;;;;;;;;;;6.02;89.18;102407.34;4195041;28;20166;-68
2023/12/18 01:06:27;;;;;;;;;;;;;;;6.00;89.15;102403.91;4195316;28;20031;-68
2023/12/18 01:08:29;;;;;;;;;;;;;;;5.99;89.15;102412.06;4195333;28;20376;-68
2023/12/18 01:10:32;;;;;;;;;;;;;;;5.97;89.11;102409.47;4193446;28;20389;-68
2023/12/18 01:12:33;;;;;;;;;;;;;;;5.96;89.46;102413.09;4195186;28;19943;-68
2023/12/18 01:14:35;;;;;;;;;;;;;;;5.97;89.52;102405.94;4195568;28;20011;-68
2023/12/18 01:16:37;;;;;;;;;;;;;;;5.95;89.25;102414.91;4194204;28;20023;-68
2023/12/18 01:18:41;;;;;;;;;;;;;;;5.95;89.60;102414.91;4195296;28;20015;-68
2023/12/18 01:20:43;;;;;;;;;;;;;;;5.94;89.58;102407.84;4193199;28;20028;-69
2023/12/18 01:22:45;;;;;;;;;;;;;;;5.95;89.72;102409.56;4194328;28;20011;-68
2023/12/18 01:24:47;;;;;;;;;;;;;;;5.95;89.34;102408.69;4195329;28;20023;-68
2023/12/18 01:26:48;;;;;;;;;;;;;;;5.94;89.44;102402.50;4194893;28;20378;-67
2023/12/18 01:28:50;;;;;;;;;;;;;;;5.93;89.55;102394.56;4195418;28;20463;-68
2023/12/18 01:30:53;;;;;;;;;;;;;;;5.92;89.37;102408.91;4192158;28;20362;-68
2023/12/18 01:32:55;;;;;;;;;;;;;;;5.92;89.72;102406.22;4194695;28;19939;-68
2023/12/18 01:34:58;;;;;;;;;;;;;;;5.91;89.63;102402.69;4193972;28;20019;-68
2023/12/18 01:37:00;;;;;;;;;;;;;;;5.90;89.53;102400.13;4195004;28;20063;-68
2023/12/18 01:39:02;;;;;;;;;;;;;;;5.90;89.60;102405.50;4195230;28;20031;-68
2023/12/18 01:41:04;;;;;;;;;;;;;;;5.89;89.84;102393.03;4193623;28;20019;-68
2023/12/18 01:43:21;;;;;;;;;;;;;;;5.89;89.52;102399.28;4194712;28;20028;-68
2023/12/18 01:45:23;;;;;;;;;;;;;;;5.90;89.90;102397.44;4195659;28;20027;-68
2023/12/18 01:47:25;;;;;;;;;;;;;;;5.88;90.01;102391.34;4195380;28;20022;-68
2023/12/18 01:49:27;;;;;;;;;;;;;;;5.88;90.04;102389.50;4191920;28;20024;-69
2023/12/18 01:51:30;;;;;;;;;;;;;;;5.87;89.95;102393.13;4193936;28;20023;-68
2023/12/18 01:53:32;;;;;;;;;;;;;;;5.86;89.93;102394.13;4194869;28;20372;-68
2023/12/18 01:55:33;;;;;;;;;;;;;;;5.85;89.78;102403.13;4195446;28;20024;-68
2023/12/18 01:57:35;;;;;;;;;;;;;;;5.85;89.59;102392.41;4191343;28;20015;-68
2023/12/18 01:59:37;;;;;;;;;;;;;;;5.85;89.92;102392.41;4194261;28;20011;-67
2023/12/18 02:01:39;;;;;;;;;;;;;;;5.85;89.84;102397.75;4192952;28;20027;-68
2023/12/18 02:03:41;;;;;;;;;;;;;;;5.85;90.07;102396.91;4195013;28;20027;-69
2023/12/18 02:05:42;;;;;;;;;;;;;;;5.84;90.14;102396.03;4193975;28;20026;-69
2023/12/18 02:07:46;;;;;;;;;;;;;;;5.84;89.96;102397.88;4194901;28;19928;-69
2023/12/18 02:09:48;;;;;;;;;;;;;;;5.83;89.93;102390.78;4194733;28;20338;-69
2023/12/18 02:11:50;;;;;;;;;;;;;;;5.83;89.89;102398.81;4193106;28;20442;-68
2023/12/18 02:13:51;;;;;;;;;;;;;;;5.82;89.90;102397.97;4190077;28;19960;-68
2023/12/18 02:15:53;;;;;;;;;;;;;;;5.82;90.20;102397.97;4195323;28;19928;-69
2023/12/18 02:17:54;;;;;;;;;;;;;;;5.83;90.31;102406.84;4194292;28;20023;-69
2023/12/18 02:20:06;;;;;;;;;;;;;;;5.83;90.28;102401.50;4194764;28;20030;-69
2023/12/18 02:22:08;;;;;;;;;;;;;;;5.82;90.08;102397.97;4197055;28;20016;-68
2023/12/18 02:24:11;;;;;;;;;;;;;;;5.82;90.44;102399.81;4198104;28;20421;-68
2023/12/18 02:26:14;;;;;;;;;;;;;;;5.83;90.30;102393.44;4196975;28;20458;-69
2023/12/18 02:28:16;;;;;;;;;;;;;;;5.82;90.47;102395.28;4197290;28;20028;-68
2023/12/18 02:30:19;;;;;;;;;;;;;;;5.84;90.50;102382.63;4197527;28;20357;-68
2023/12/18 02:32:21;;;;;;;;;;;;;;;5.83;90.41;102386.28;4197453;28;20027;-68
2023/12/18 02:34:23;;;;;;;;;;;;;;;5.84;90.47;102387.13;4195737;28;19925;-69
2023/12/18 02:36:25;;;;;;;;;;;;;;;5.84;90.50;102389.81;4196878;28;20023;-68
2023/12/18 02:38:27;;;;;;;;;;;;;;;5.84;90.80;102384.47;4197685;28;20015;-68
2023/12/18 02:40:30;;;;;;;;;;;;;;;5.84;90.80;102384.47;4195070;28;20039;-68
2023/12/18 02:42:32;;;;;;;;;;;;;;;5.84;90.56;102374.56;4194096;28;19995;-69
2023/12/18 02:44:34;;;;;;;;;;;;;;;5.86;90.89;102379.84;4213467;28;20384;-68
2023/12/18 02:46:35;;;;;;;;;;;;;;;5.86;90.98;102371.78;4197343;28;20015;-69
2023/12/18 02:48:37;;;;;;;;;;;;;;;5.87;91.04;102378.88;4196519;28;19985;-68
2023/12/18 02:50:39;;;;;;;;;;;;;;;5.87;91.07;102378.88;4194811;28;20015;-68
2023/12/18 02:52:40;;;;;;;;;;;;;;;5.89;90.82;102387.66;4195735;28;20031;-68
2023/12/18 02:54:42;;;;;;;;;;;;;;;5.89;90.97;102379.63;4197217;28;20290;-69
2023/12/18 02:56:45;;;;;;;;;;;;;;;5.89;91.12;102382.31;4196329;28;20354;-69
2023/12/18 02:58:46;;;;;;;;;;;;;;;5.91;91.04;102383.94;4197042;28;20430;-69
2023/12/18 03:00:48;;;;;;;;;;;;;;;5.93;91.18;102378.47;4197035;28;20019;-68
2023/12/18 03:02:50;;;;;;;;;;;;;;;5.95;91.38;102373.84;4196960;28;20020;-69
2023/12/18 03:04:52;;;;;;;;;;;;;;;5.95;91.32;102377.38;4194091;28;21302;-68
2023/12/18 03:06:54;;;;;;;;;;;;;;;5.98;91.59;102380.84;4197485;28;19959;-69
2023/12/18 03:08:56;;;;;;;;;;;;;;;5.99;91.48;102372.69;4196346;28;20062;-69
2023/12/18 03:10:58;;;;;;;;;;;;;;;6.01;91.63;102370.75;4195580;28;20019;-68
2023/12/18 03:13:02;;;;;;;;;;;;;;;6.01;91.50;102384.16;4196322;28;20035;-68
2023/12/18 03:15:05;;;;;;;;;;;;;;;6.02;91.58;102393.94;4195880;28;20027;-69
2023/12/18 03:17:07;;;;;;;;;;;;;;;6.03;91.72;102390.28;4196851;28;20010;-68
2023/12/18 03:19:09;;;;;;;;;;;;;;;6.04;91.67;102385.78;4195686;28;20019;-68
2023/12/18 03:21:11;;;;;;;;;;;;;;;6.06;91.65;102382.03;4195488;28;20015;-69
2023/12/18 03:23:13;;;;;;;;;;;;;;;6.06;91.67;102373.97;4196786;28;20015;-68
2023/12/18 03:25:15;;;;;;;;;;;;;;;6.08;91.53;102382.78;4194389;28;20015;-68
2023/12/18 03:27:16;;;;;;;;;;;;;;;6.10;91.69;102390.72;4196062;28;20394;-69
2023/12/18 03:29:19;;;;;;;;;;;;;;;6.10;91.72;102386.22;4196234;28;19978;-68
2023/12/18 03:31:21;;;;;;;;;;;;;;;6.11;91.71;102385.25;4196222;28;20027;-68
2023/12/18 03:33:23;;;;;;;;;;;;;;;6.13;91.64;102379.78;4197003;28;20024;-68
2023/12/18 03:35:25;;;;;;;;;;;;;;;6.13;91.67;102375.28;4196431;28;20024;-69
2023/12/18 03:37:27;;;;;;;;;;;;;;;6.11;91.64;102371.84;4196558;28;20019;-68
2023/12/18 03:39:28;;;;;;;;;;;;;;;6.16;91.27;102382.25;4196969;28;20375;-68
2023/12/18 03:41:30;;;;;;;;;;;;;;;6.20;91.34;102380.22;4192326;28;20019;-68
2023/12/18 03:43:32;;;;;;;;;;;;;;;6.21;91.28;102392.66;4196219;28;20023;-69
2023/12/18 03:45:35;;;;;;;;;;;;;;;6.21;91.57;102388.16;4196296;28;20458;-69
2023/12/18 03:47:37;;;;;;;;;;;;;;;6.24;91.40;102400.50;4195072;28;20025;-68
2023/12/18 03:49:39;;;;;;;;;;;;;;;6.25;91.42;102386.09;4194221;28;20012;-68
2023/12/18 03:51:40;;;;;;;;;;;;;;;6.28;91.09;102377.84;4194571;28;20433;-68
2023/12/18 03:53:42;;;;;;;;;;;;;;;6.30;91.34;102373.19;4196208;28;19932;-69
2023/12/18 03:55:44;;;;;;;;;;;;;;;6.31;91.26;102374.94;4194084;28;20456;-69
2023/12/18 03:57:46;;;;;;;;;;;;;;;6.34;90.97;102380.09;4196444;28;20011;-69
2023/12/18 03:59:48;;;;;;;;;;;;;;;6.34;91.00;102377.41;4196095;28;20019;-68
2023/12/18 04:01:51;;;;;;;;;;;;;;;6.35;91.04;102375.56;4195489;28;20031;-68
2023/12/18 04:03:53;;;;;;;;;;;;;;;6.38;90.73;102383.41;4195906;28;20015;-68
2023/12/18 04:05:55;;;;;;;;;;;;;;;6.40;90.70;102386.84;4196450;28;20015;-68
2023/12/18 04:07:57;;;;;;;;;;;;;;;6.40;90.85;102381.47;4196370;28;20043;-68
2023/12/18 04:09:59;;;;;;;;;;;;;;;6.41;90.68;102375.13;4196051;28;20026;-68
2023/12/18 04:12:01;;;;;;;;;;;;;;;6.43;91.05;102375.91;4195185;28;19959;-68
2023/12/18 04:14:03;;;;;;;;;;;;;;;6.44;90.51;102370.41;4195588;28;20016;-69
2023/12/18 04:16:05;;;;;;;;;;;;;;;6.47;90.72;102385.44;4195390;28;19936;-68
2023/12/18 04:18:09;;;;;;;;;;;;;;;6.49;90.66;102387.03;4195156;28;20023;-68
2023/12/18 04:20:11;;;;;;;;;;;;;;;6.52;90.51;102385.09;4194007;28;20047;-68
2023/12/18 04:22:13;;;;;;;;;;;;;;;6.54;90.54;102383.19;4195255;28;20020;-69
2023/12/18 04:24:15;;;;;;;;;;;;;;;6.57;90.41;102382.97;4193908;28;20378;-68
2023/12/18 04:26:17;;;;;;;;;;;;;;;6.60;89.88;102380.91;4195616;28;20023;-68
2023/12/18 04:28:19;;;;;;;;;;;;;;;6.63;89.88;102382.50;4196188;28;20023;-68
2023/12/18 04:30:21;;;;;;;;;;;;;;;6.62;89.82;102364.69;4195785;28;20363;-68
2023/12/18 04:32:23;;;;;;;;;;;;;;;6.65;89.87;102368.00;4194974;28;20449;-68
2023/12/18 04:34:26;;;;;;;;;;;;;;;6.67;89.83;102357.16;4194691;28;20032;-69
2023/12/18 04:36:28;;;;;;;;;;;;;;;6.71;89.47;102355.97;4195102;28;19925;-68
2023/12/18 04:38:30;;;;;;;;;;;;;;;6.71;89.65;102358.66;4196228;28;20018;-68
2023/12/18 04:40:32;;;;;;;;;;;;;;;6.74;89.33;102354.88;4194246;28;20039;-68
2023/12/18 04:42:34;;;;;;;;;;;;;;;6.71;89.39;102347.91;4194806;28;20090;-68
2023/12/18 04:44:36;;;;;;;;;;;;;;;6.76;89.08;102356.47;4195854;28;19963;-68
2023/12/18 04:46:38;;;;;;;;;;;;;;;6.79;89.18;102352.72;4195262;28;20016;-68
2023/12/18 04:48:41;;;;;;;;;;;;;;;6.79;89.03;102358.94;4193235;28;20016;-67
2023/12/18 04:50:44;;;;;;;;;;;;;;;6.80;89.10;102360.66;4192946;28;20011;-68
2023/12/18 04:52:46;;;;;;;;;;;;;;;6.81;88.74;102358.81;4194440;28;20035;-68
2023/12/18 04:54:47;;;;;;;;;;;;;;;6.82;88.98;102360.56;4194620;28;19988;-68
2023/12/18 04:56:49;;;;;;;;;;;;;;;6.86;88.76;102359.34;4194680;28;20028;-68
2023/12/18 04:58:51;;;;;;;;;;;;;;;6.87;88.71;102353.00;4194386;28;20019;-68
2023/12/18 05:00:55;;;;;;;;;;;;;;;6.89;88.43;102358.25;4193552;28;20310;-68
2023/12/18 05:02:57;;;;;;;;;;;;;;;6.90;88.33;102357.31;4194537;28;20035;-68
2023/12/18 05:04:59;;;;;;;;;;;;;;;6.93;88.49;102354.34;4195038;28;20371;-68
2023/12/18 05:07:02;;;;;;;;;;;;;;;6.94;88.29;102356.94;4195585;28;20031;-68
2023/12/18 05:09:04;;;;;;;;;;;;;;;6.95;88.23;102350.59;4193880;28;20015;-68
2023/12/18 05:11:06;;;;;;;;;;;;;;;6.95;88.05;102350.59;4194716;28;20636;-68
2023/12/18 05:13:08;;;;;;;;;;;;;;;6.97;88.10;102342.44;4194807;28;20031;-68
2023/12/18 05:15:10;;;;;;;;;;;;;;;6.97;88.09;102348.66;4193102;28;20015;-68
2023/12/18 05:17:11;;;;;;;;;;;;;;;6.98;88.00;102353.06;4194574;28;20023;-69
2023/12/18 05:19:13;;;;;;;;;;;;;;;7.02;87.93;102351.00;4192509;28;20391;-69
2023/12/18 05:21:14;;;;;;;;;;;;;;;7.04;87.55;102359.81;4192586;28;19928;-68
2023/12/18 05:23:20;;;;;;;;;;;;;;;7.04;87.66;102338.31;4194027;28;20367;-69
2023/12/18 05:25:22;;;;;;;;;;;;;;;7.03;87.63;102348.19;4194361;28;20023;-68
2023/12/18 05:27:24;;;;;;;;;;;;;;;7.06;87.57;102359.72;4194537;28;20013;-68
2023/12/18 05:29:26;;;;;;;;;;;;;;;7.05;87.63;102348.09;4194186;28;20011;-68
2023/12/18 05:31:28;;;;;;;;;;;;;;;7.08;87.48;102365.81;4193750;28;19929;-68
2023/12/18 05:33:30;;;;;;;;;;;;;;;7.07;87.17;102356.91;4195234;28;20103;-68
2023/12/18 05:35:32;;;;;;;;;;;;;;;7.09;87.23;102370.22;4192763;28;20015;-68
2023/12/18 05:37:34;;;;;;;;;;;;;;;7.08;87.22;102366.66;4192859;28;20019;-68
2023/12/18 05:39:36;;;;;;;;;;;;;;;7.08;87.49;102373.88;4195673;28;20035;-68
2023/12/18 05:41:38;;;;;;;;;;;;;;;7.08;87.51;102381.94;4193600;28;20031;-68
2023/12/18 05:43:40;;;;;;;;;;;;;;;7.09;87.13;102386.34;4193426;28;20015;-68
2023/12/18 05:45:42;;;;;;;;;;;;;;;7.12;87.19;102391.50;4192509;28;20036;-68
2023/12/18 05:47:44;;;;;;;;;;;;;;;7.12;87.28;102388.81;4193428;28;20015;-68
2023/12/18 05:49:46;;;;;;;;;;;;;;;7.14;86.98;102394.91;4192607;28;20023;-68
2023/12/18 05:51:49;;;;;;;;;;;;;;;7.15;87.06;102394.81;4191284;28;20027;-66
2023/12/18 05:53:51;;;;;;;;;;;;;;;7.14;87.05;102397.59;4196174;28;20616;-67
2023/12/18 05:55:54;;;;;;;;;;;;;;;7.14;87.24;102403.81;4198029;28;20054;-67
2023/12/18 05:57:56;;;;;;;;;;;;;;;7.15;87.26;102410.94;4197714;28;20386;-68
2023/12/18 05:59:57;;;;;;;;;;;;;;;7.14;87.01;102408.34;4196856;28;20011;-68
2023/12/18 06:01:59;;;;;;;;;;;;;;;7.14;87.29;102411.03;4196640;28;19925;-67
2023/12/18 06:04:01;;;;;;;;;;;;;;;7.13;87.19;102407.50;4193243;28;20011;-67
2023/12/18 06:06:03;;;;;;;;;;;;;;;7.15;86.73;102402.88;4194875;28;20043;-67
2023/12/18 06:08:05;;;;;;;;;;;;;;;7.16;87.08;102409.09;4192493;28;20020;-67
2023/12/18 06:10:08;;;;;;;;;;;;;;;7.17;86.80;102411.66;4195138;28;19975;-68
2023/12/18 06:12:12;;;;;;;;;;;;;;;7.16;86.84;102407.28;4196204;28;20011;-68
2023/12/18 06:14:13;;;;;;;;;;;;;;;7.17;86.90;102408.97;4195370;28;20023;-68
2023/12/18 06:16:15;;;;;;;;;;;;;;;7.16;86.97;102409.97;4196971;28;20023;-68
2023/12/18 06:18:17;;;;;;;;;;;;;;;7.19;86.87;102407.06;4195899;28;19987;-68
2023/12/18 06:20:19;;;;;;;;;;;;;;;7.19;86.57;102400.78;4195367;28;20012;-68
2023/12/18 06:22:22;;;;;;;;;;;;;;;7.20;86.85;102411.44;4195181;28;20011;-68
2023/12/18 06:24:24;;;;;;;;;;;;;;;7.19;86.58;102408.84;4196159;28;20462;-68
2023/12/18 06:26:26;;;;;;;;;;;;;;;7.20;86.48;102408.75;4196722;28;20011;-67
2023/12/18 06:28:29;;;;;;;;;;;;;;;7.21;86.74;102409.63;4197567;28;20019;-68
2023/12/18 06:30:31;;;;;;;;;;;;;;;7.20;86.57;102402.53;4196596;28;20438;-68
2023/12/18 06:32:33;;;;;;;;;;;;;;;7.20;86.46;102414.13;4197166;28;20023;-68
2023/12/18 06:34:35;;;;;;;;;;;;;;;7.21;86.34;102413.16;4196631;28;20027;-68
2023/12/18 06:36:37;;;;;;;;;;;;;;;7.21;86.53;102413.16;4197516;28;20043;-68
2023/12/18 06:38:39;;;;;;;;;;;;;;;7.21;86.54;102410.47;4196365;28;19924;-68
2023/12/18 06:40:40;;;;;;;;;;;;;;;7.21;86.15;102410.47;4196146;28;20064;-68
2023/12/18 06:42:42;;;;;;;;;;;;;;;7.20;86.36;102419.50;4196003;28;20405;-68
2023/12/18 06:44:45;;;;;;;;;;;;;;;7.21;86.33;102415.00;4192255;28;20072;-68
2023/12/18 06:46:47;;;;;;;;;;;;;;;7.22;86.11;102414.88;4192439;28;20023;-68
2023/12/18 06:48:48;;;;;;;;;;;;;;;7.21;86.24;102415.84;4192750;28;20050;-68
2023/12/18 06:50:50;;;;;;;;;;;;;;;7.22;86.41;102414.88;4191749;28;19928;-68
2023/12/18 06:52:53;;;;;;;;;;;;;;;7.21;86.43;102415.84;4192399;28;20811;-68
2023/12/18 06:54:55;;;;;;;;;;;;;;;7.23;86.09;102421.09;4194506;28;20027;-68
2023/12/18 06:56:57;;;;;;;;;;;;;;;7.24;85.99;102421.97;4194508;28;20027;-68
2023/12/18 06:58:58;;;;;;;;;;;;;;;7.24;86.15;102413.91;4194672;28;19963;-68
2023/12/18 07:01:02;;;;;;;;;;;;;;;7.24;86.09;102417.47;4195311;28;20016;-68
2023/12/18 07:03:04;;;;;;;;;;;;;;;7.25;85.97;102404.88;4195397;28;20039;-68
2023/12/18 07:05:06;;;;;;;;;;;;;;;7.24;85.90;102403.13;4195508;28;20023;-68
2023/12/18 07:07:08;;;;;;;;;;;;;;;7.24;85.68;102413.91;4196700;28;20351;-68
2023/12/18 07:09:10;;;;;;;;;;;;;;;7.24;85.86;102421.97;4197111;28;20023;-68
2023/12/18 07:11:12;;;;;;;;;;;;;;;7.24;85.71;102420.16;4195859;28;20366;-68
2023/12/18 07:13:15;;;;;;;;;;;;;;;7.24;85.59;102425.53;4195803;28;20032;-68
2023/12/18 07:15:17;;;;;;;;;;;;;;;7.27;85.49;102427.09;4195759;28;20012;-68
2023/12/18 07:17:20;;;;;;;;;;;;;;;7.27;85.52;102421.72;4188891;28;20541;-68
2023/12/18 07:19:23;;;;;;;;;;;;;;;7.29;85.59;102427.84;4195275;28;20583;-68
2023/12/18 07:21:24;;;;;;;;;;;;;;;7.27;85.39;102432.47;4195638;28;20108;-68
2023/12/18 07:23:27;;;;;;;;;;;;;;;7.27;85.61;102435.16;4196254;28;20019;-68
2023/12/18 07:25:28;;;;;;;;;;;;;;;7.27;85.55;102444.06;4197470;28;19976;-68
2023/12/18 07:27:30;;;;;;;;;;;;;;;7.26;85.55;102439.69;4212209;28;20369;-68
2023/12/18 07:29:32;;;;;;;;;;;;;;;7.24;85.33;102444.34;4196818;28;20011;-68
2023/12/18 07:31:33;;;;;;;;;;;;;;;7.26;85.58;102437.00;4196081;28;20011;-68
2023/12/18 07:33:36;;;;;;;;;;;;;;;7.26;85.14;102433.44;4196736;28;20305;-68
2023/12/18 07:35:38;;;;;;;;;;;;;;;7.25;85.56;102439.81;4195538;28;20007;-68
2023/12/18 07:37:40;;;;;;;;;;;;;;;7.25;85.66;102431.75;4196020;28;20023;-68
2023/12/18 07:39:42;;;;;;;;;;;;;;;7.26;85.46;102441.50;4193685;28;19925;-69
2023/12/18 07:41:44;;;;;;;;;;;;;;;7.25;85.25;102447.88;4196122;28;20014;-68
2023/12/18 07:43:46;;;;;;;;;;;;;;;7.26;85.67;102452.25;4194891;28;20043;-68
2023/12/18 07:45:48;;;;;;;;;;;;;;;7.25;85.36;102447.88;4195801;28;20018;-68
2023/12/18 07:47:49;;;;;;;;;;;;;;;7.25;85.44;102450.56;4196103;28;20019;-68
2023/12/18 07:49:52;;;;;;;;;;;;;;;7.25;85.62;102450.56;4194778;28;20400;-68
2023/12/18 07:51:55;;;;;;;;;;;;;;;7.25;85.31;102453.25;4194290;28;20486;-68
2023/12/18 07:53:56;;;;;;;;;;;;;;;7.24;85.43;102454.19;4195979;28;20023;-68
2023/12/18 07:55:58;;;;;;;;;;;;;;;7.24;85.48;102462.25;4195950;28;20039;-68
2023/12/18 07:57:59;;;;;;;;;;;;;;;7.24;85.53;102457.78;4195742;28;20341;-68
2023/12/18 08:00:02;;;;;;;;;;;;;;;7.26;85.58;102453.13;4195590;28;20828;-68
2023/12/18 08:02:13;;;;;;;;;;;;;;;7.27;85.52;102451.28;4195836;28;20425;-68
2023/12/18 08:04:15;;;;;;;;;;;;;;;7.27;85.23;102446.75;4195626;28;20039;-68
2023/12/18 08:06:18;;;;;;;;;;;;;;;7.27;85.20;102448.59;4195727;28;20039;-68
2023/12/18 08:08:20;;;;;;;;;;;;;;;7.27;85.26;102441.38;4195978;28;20048;-68
2023/12/18 08:10:22;;;;;;;;;;;;;;;7.27;85.29;102436.00;4193960;28;20020;-67
2023/12/18 08:12:23;;;;;;;;;;;;;;;7.27;85.50;102440.53;4195071;28;20022;-68
2023/12/18 08:14:25;;;;;;;;;;;;;;;7.28;85.30;102431.53;4195759;28;20445;-68
2023/12/18 08:16:28;;;;;;;;;;;;;;;7.28;85.41;102426.13;4194456;28;20368;-68
2023/12/18 08:18:30;;;;;;;;;;;;;;;7.29;85.05;102433.22;4195720;28;20011;-68
2023/12/18 08:20:32;;;;;;;;;;;;;;;7.28;85.42;102442.25;4193359;28;20040;-68
2023/12/18 08:22:34;;;;;;;;;;;;;;;7.29;85.11;102443.97;4193857;28;20023;-69
2023/12/18 08:24:37;;;;;;;;;;;;;;;7.29;85.06;102436.78;4194689;28;19967;-68
2023/12/18 08:26:39;;;;;;;;;;;;;;;7.30;85.27;102446.53;4195965;28;20015;-68
2023/12/18 08:28:42;;;;;;;;;;;;;;;7.29;85.04;102436.78;4194809;28;20390;-68
2023/12/18 08:30:44;;;;;;;;;;;;;;;7.30;84.98;102437.63;4194845;28;20079;-68
2023/12/18 08:32:46;;;;;;;;;;;;;;;7.29;85.13;102444.84;4195410;28;20024;-68
2023/12/18 08:34:48;;;;;;;;;;;;;;;7.29;85.01;102442.16;4195431;28;20023;-68
2023/12/18 08:36:50;;;;;;;;;;;;;;;7.30;85.21;102445.69;4195092;28;20019;-68
2023/12/18 08:38:53;;;;;;;;;;;;;;;7.29;85.04;102439.47;4193839;28;20339;-68
2023/12/18 08:40:56;;;;;;;;;;;;;;;7.30;84.86;102443.84;4193625;28;20015;-69
2023/12/18 08:42:58;;;;;;;;;;;;;;;7.31;85.12;102445.56;4194289;28;20007;-69
2023/12/18 08:45:00;;;;;;;;;;;;;;;7.31;85.25;102442.88;4195593;28;20382;-68
2023/12/18 08:47:02;;;;;;;;;;;;;;;7.30;84.90;102425.03;4194671;28;20015;-69
2023/12/18 08:49:04;;;;;;;;;;;;;;;7.29;84.91;102428.72;4194534;28;20019;-69
2023/12/18 08:51:06;;;;;;;;;;;;;;;7.31;85.15;102436.66;4194717;28;20451;-68
2023/12/18 08:53:08;;;;;;;;;;;;;;;7.31;85.28;102431.28;4195108;28;20019;-68
2023/12/18 08:55:11;;;;;;;;;;;;;;;7.30;85.16;102451.91;4194686;28;20018;-68
2023/12/18 08:57:13;;;;;;;;;;;;;;;7.30;85.09;102411.59;4195242;28;20393;-68
2023/12/18 08:59:15;;;;;;;;;;;;;;;7.31;85.05;102420.53;4195220;28;20358;-68
2023/12/18 09:01:18;;;;;;;;;;;;;;;7.31;84.93;102425.91;4194901;28;20031;-68
2023/12/18 09:03:23;;;;;;;;;;;;;;;7.31;84.95;102417.84;4195131;28;20040;-69
2023/12/18 09:05:25;;;;;;;;;;;;;;;7.31;84.89;102420.53;4192944;28;20433;-68
2023/12/18 09:07:27;;;;;;;;;;;;;;;7.31;85.19;102415.16;4194880;28;20011;-69
2023/12/18 09:09:29;;;;;;;;;;;;;;;7.31;85.13;102416.00;4193006;28;20496;-68
2023/12/18 09:11:33;;;;;;;;;;;;;;;7.32;85.14;102419.53;4193794;28;20023;-68
2023/12/18 09:13:36;;;;;;;;;;;;;;;7.32;85.10;102419.53;4194213;28;20052;-68
2023/12/18 09:15:40;;;;;;;;;;;;;;;7.32;84.78;102422.22;4194588;28;20023;-68
2023/12/18 09:17:42;;;;;;;;;;;;;;;7.31;85.05;102426.75;4194746;28;20023;-68
2023/12/18 09:19:43;;;;;;;;;;;;;;;7.32;85.03;102424.91;4193322;28;20016;-68
2023/12/18 09:21:45;;;;;;;;;;;;;;;7.32;85.19;102428.50;4193479;28;20384;-68
2023/12/18 09:23:46;;;;;;;;;;;;;;;7.31;85.15;102425.91;4193798;28;20011;-68
2023/12/18 09:25:49;;;;;;;;;;;;;;;7.33;85.10;102423.97;4194230;28;19928;-68
2023/12/18 09:27:52;;;;;;;;;;;;;;;7.32;85.01;102427.59;4196218;28;20028;-69
2023/12/18 09:29:54;;;;;;;;;;;;;;;7.33;85.35;102430.19;4198445;28;20049;-69
2023/12/18 09:31:56;;;;;;;;;;;;;;;7.33;85.31;102424.81;4197135;28;20364;-68
2023/12/18 09:33:58;;;;;;;;;;;;;;;7.34;85.19;102407.72;4197046;28;20023;-68
2023/12/18 09:35:59;;;;;;;;;;;;;;;7.34;85.22;102404.19;4198621;28;20016;-68
2023/12/18 09:38:02;;;;;;;;;;;;;;;7.34;85.23;102402.34;4197797;28;20016;-68
2023/12/18 09:40:05;;;;;;;;;;;;;;;7.36;85.14;102412.97;4198018;28;20024;-68
2023/12/18 09:42:08;;;;;;;;;;;;;;;7.35;85.22;102413.94;4195488;28;20021;-68
2023/12/18 09:44:13;;;;;;;;;;;;;;;7.36;84.95;102421.03;4194915;28;20015;-68
2023/12/18 09:46:15;;;;;;;;;;;;;;;7.36;85.00;102415.66;4197569;28;19943;-68
2023/12/18 09:48:17;;;;;;;;;;;;;;;7.34;85.03;102409.56;4197631;28;20011;-68
2023/12/18 09:50:19;;;;;;;;;;;;;;;7.37;85.25;102415.56;4196833;28;20015;-68
2023/12/18 09:52:21;;;;;;;;;;;;;;;7.37;84.96;102426.31;4196937;28;20060;-68
2023/12/18 09:54:22;;;;;;;;;;;;;;;7.37;85.26;102420.09;4197890;28;20024;-68
2023/12/18 09:56:24;;;;;;;;;;;;;;;7.37;84.95;102414.72;4198534;28;20096;-68
2023/12/18 09:58:26;;;;;;;;;;;;;;;7.39;85.20;102423.50;4198539;28;20016;-68
2023/12/18 10:00:29;;;;;;;;;;;;;;;7.38;85.07;102413.72;4197531;28;20016;-68
2023/12/18 10:02:31;;;;;;;;;;;;;;;7.38;85.11;102414.59;4197824;28;20015;-68
2023/12/18 10:04:33;;;;;;;;;;;;;;;7.40;85.00;102406.41;4197403;28;20023;-68
2023/12/18 10:06:35;;;;;;;;;;;;;;;7.40;85.20;102401.03;4197392;28;20465;-68
2023/12/18 10:08:37;;;;;;;;;;;;;;;7.41;85.18;102397.34;4197434;28;20502;-68
2023/12/18 10:10:39;;;;;;;;;;;;;;;7.41;85.02;102386.59;4197092;28;20020;-68
2023/12/18 10:12:41;;;;;;;;;;;;;;;7.41;85.17;102394.66;4197375;28;20019;-68
2023/12/18 10:14:43;;;;;;;;;;;;;;;7.40;85.32;102385.75;4197623;28;20035;-68
2023/12/18 10:16:45;;;;;;;;;;;;;;;7.42;85.18;102395.53;4197101;28;20055;-68
2023/12/18 10:18:47;;;;;;;;;;;;;;;7.41;84.85;102394.66;4197302;28;20341;-68
2023/12/18 10:20:48;;;;;;;;;;;;;;;7.41;85.04;102408.09;4196671;28;20028;-68
2023/12/18 10:22:50;;;;;;;;;;;;;;;7.41;84.90;102397.34;4197441;28;19956;-69
2023/12/18 10:24:52;;;;;;;;;;;;;;;7.42;85.01;102398.22;4197272;28;20003;-69
2023/12/18 10:26:57;;;;;;;;;;;;;;;7.43;84.94;102389.19;4197816;28;19935;-68
2023/12/18 10:28:59;;;;;;;;;;;;;;;7.42;85.23;102390.16;4197419;28;20027;-68
2023/12/18 10:31:02;;;;;;;;;;;;;;;7.42;85.24;102399.09;4196805;28;20023;-68
2023/12/18 10:33:13;;;;;;;;;;;;;;;7.42;84.96;102399.09;4197890;28;20023;-68
2023/12/18 10:35:14;;;;;;;;;;;;;;;7.43;85.19;102402.63;4197182;28;20032;-68
2023/12/18 10:37:16;;;;;;;;;;;;;;;7.43;85.27;102392.75;4197515;28;20378;-68